Time;durP1;ratioP1;P1;durP2;ratioP2;P2;SDS_P1;SDS_P2;PMS_P1;PMS_P2;Temp;Humidity;BMP_temperature;BMP_pressure;BME280_temperature;BME280_humidity;BME280_pressure;Samples;Min_cycle;Max_cycle;Signal;HPM_P1;HPM_P2
2022/06/11 00:00:11;;;;;;;1.50;1.00;;;20.60;95.10;;;;;;5083015;28;20545;-76
2022/06/11 00:02:38;;;;;;;1.47;0.90;;;20.60;95.10;;;;;;5092146;28;21257;-76
2022/06/11 00:05:06;;;;;;;1.47;0.90;;;20.60;95.50;;;;;;5089435;28;20464;-76
2022/06/11 00:07:34;;;;;;;1.50;0.90;;;20.60;95.30;;;;;;5076774;28;20466;-76
2022/06/11 00:10:01;;;;;;;1.50;0.90;;;20.60;95.30;;;;;;5065146;28;20874;-75
2022/06/11 00:12:28;;;;;;;1.50;0.90;;;20.60;95.30;;;;;;5078197;27;20483;-75
2022/06/11 00:14:55;;;;;;;1.50;0.90;;;20.50;95.50;;;;;;5073548;28;20530;-76
2022/06/11 00:17:26;;;;;;;1.50;0.90;;;20.50;95.60;;;;;;5068174;28;20481;-75
2022/06/11 00:19:54;;;;;;;1.50;0.90;;;20.50;95.80;;;;;;5067810;28;20488;-76
2022/06/11 00:22:23;;;;;;;1.50;0.90;;;20.50;95.60;;;;;;5069242;28;20626;-76
2022/06/11 00:24:50;;;;;;;1.50;0.90;;;20.50;95.70;;;;;;5071848;28;20465;-75
2022/06/11 00:27:19;;;;;;;1.50;0.90;;;20.50;96.20;;;;;;5074217;28;20551;-75
2022/06/11 00:29:47;;;;;;;1.47;0.90;;;20.50;96.00;;;;;;5087680;28;20488;-75
2022/06/11 00:32:15;;;;;;;1.47;0.90;;;20.50;96.20;;;;;;5082238;28;20490;-75
2022/06/11 00:34:44;;;;;;;1.50;0.90;;;20.50;96.40;;;;;;5091959;28;20465;-75
2022/06/11 00:37:12;;;;;;;1.50;0.90;;;20.40;96.10;;;;;;5079520;28;20472;-76
2022/06/11 00:39:40;;;;;;;1.43;0.90;;;20.40;96.30;;;;;;5061307;28;20869;-75
2022/06/11 00:42:12;;;;;;;1.50;0.90;;;20.40;96.50;;;;;;5066530;28;20987;-75
2022/06/11 00:44:38;;;;;;;1.50;0.90;;;20.40;96.70;;;;;;5062815;28;20457;-75
2022/06/11 00:47:08;;;;;;;1.50;0.90;;;20.40;96.40;;;;;;5067052;28;20477;-75
2022/06/11 00:49:39;;;;;;;1.50;0.90;;;20.40;96.50;;;;;;5070481;28;20955;-75
2022/06/11 00:52:17;;;;;;;1.50;1.00;;;20.40;96.50;;;;;;5059474;28;21085;-76
2022/06/11 00:54:48;;;;;;;1.47;0.90;;;20.40;97.00;;;;;;5071140;28;20457;-75
2022/06/11 00:57:16;;;;;;;1.47;0.90;;;20.40;96.90;;;;;;5067790;28;20473;-75
2022/06/11 00:59:47;;;;;;;1.47;0.90;;;20.40;97.00;;;;;;5066304;28;20481;-75
2022/06/11 01:02:14;;;;;;;1.50;0.90;;;20.40;96.80;;;;;;5066045;28;20472;-75
2022/06/11 01:04:47;;;;;;;1.50;0.90;;;20.40;97.30;;;;;;5068564;28;20475;-76
2022/06/11 01:07:52;;;;;;;1.50;1.00;;;20.40;97.30;;;;;;5067642;28;20457;-76
2022/06/11 01:10:41;;;;;;;1.50;1.10;;;20.30;97.40;;;;;;5074250;28;20507;-76
2022/06/11 01:13:17;;;;;;;1.43;0.90;;;20.30;97.60;;;;;;5092670;28;20515;-74
2022/06/11 01:15:47;;;;;;;1.47;0.90;;;20.30;97.70;;;;;;5057293;28;20465;-75
2022/06/11 01:18:30;;;;;;;1.47;0.90;;;20.30;97.40;;;;;;5061183;28;20973;-76
2022/06/11 01:21:05;;;;;;;1.43;0.90;;;20.30;97.60;;;;;;5054496;28;20507;-76
2022/06/11 01:24:20;;;;;;;1.47;0.90;;;20.30;97.70;;;;;;5063292;28;20465;-75
2022/06/11 01:27:30;;;;;;;1.50;0.90;;;20.30;97.50;;;;;;5027442;28;20483;-76
2022/06/11 01:30:00;;;;;;;1.50;0.90;;;20.30;97.60;;;;;;5063957;28;20534;-75
2022/06/11 01:32:41;;;;;;;1.50;0.90;;;20.30;98.00;;;;;;5069918;28;20891;-75
2022/06/11 01:35:17;;;;;;;1.50;0.90;;;20.30;97.90;;;;;;5068894;28;21008;-75
2022/06/11 01:37:51;;;;;;;1.50;0.90;;;20.20;98.10;;;;;;5077365;28;20464;-76
2022/06/11 01:40:30;;;;;;;1.50;0.93;;;20.20;98.10;;;;;;5083508;28;20526;-75
2022/06/11 01:43:00;;;;;;;1.50;0.90;;;20.20;98.20;;;;;;5072232;28;20476;-75
2022/06/11 01:45:31;;;;;;;1.50;0.90;;;20.20;98.20;;;;;;5061564;28;20466;-75
2022/06/11 01:48:00;;;;;;;1.47;0.90;;;20.20;98.20;;;;;;5065566;28;20849;-75
2022/06/11 01:50:30;;;;;;;1.50;1.00;;;20.20;98.20;;;;;;5063227;28;20481;-76
2022/06/11 01:53:24;;;;;;;1.47;0.90;;;20.20;98.20;;;;;;5079866;28;20456;-75
2022/06/11 01:56:07;;;;;;;1.50;0.90;;;20.20;98.20;;;;;;5039175;28;20462;-75
2022/06/11 01:58:51;;;;;;;1.50;0.90;;;20.10;98.20;;;;;;5071037;28;21162;-76
2022/06/11 02:01:27;;;;;;;1.50;0.90;;;20.10;98.20;;;;;;5053689;28;20488;-75
2022/06/11 02:04:02;;;;;;;1.50;0.90;;;20.10;98.20;;;;;;5065390;28;20465;-76
2022/06/11 02:06:38;;;;;;;2.07;1.40;;;20.00;98.20;;;;;;5066945;28;21010;-76
2022/06/11 02:09:22;;;;;;;1.50;0.93;;;20.00;98.20;;;;;;5066850;28;20485;-76
2022/06/11 02:11:52;;;;;;;1.50;0.90;;;20.00;98.20;;;;;;5069384;28;20464;-75
2022/06/11 02:14:25;;;;;;;1.50;0.90;;;20.00;98.20;;;;;;5091034;28;20673;-75
2022/06/11 02:16:56;;;;;;;1.50;0.90;;;20.00;98.20;;;;;;5085080;28;20641;-76
2022/06/11 02:19:29;;;;;;;1.50;0.90;;;20.00;98.20;;;;;;5074876;28;20485;-77
2022/06/11 02:22:01;;;;;;;1.50;0.90;;;19.90;98.20;;;;;;5071287;28;20801;-76
2022/06/11 02:24:33;;;;;;;1.50;0.90;;;19.90;98.20;;;;;;5091082;28;20468;-77
2022/06/11 02:27:04;;;;;;;1.50;0.90;;;19.90;98.20;;;;;;5090446;28;21036;-76
2022/06/11 02:29:33;;;;;;;1.43;0.90;;;19.90;98.20;;;;;;5091547;28;20504;-77
2022/06/11 02:32:08;;;;;;;1.50;0.90;;;19.90;98.20;;;;;;5077194;28;20460;-76
2022/06/11 02:34:39;;;;;;;1.50;0.90;;;19.90;98.20;;;;;;5091213;28;20468;-76
2022/06/11 02:37:10;;;;;;;1.50;0.90;;;19.90;98.20;;;;;;5084830;28;20948;-77
2022/06/11 02:39:41;;;;;;;1.50;0.90;;;19.80;98.20;;;;;;5078304;28;20592;-76
2022/06/11 02:42:12;;;;;;;1.47;0.93;;;19.70;98.20;;;;;;5063881;28;20885;-76
2022/06/11 02:44:38;;;;;;;1.50;0.90;;;19.70;98.20;;;;;;5069413;28;20741;-76
2022/06/11 02:47:07;;;;;;;1.50;0.90;;;19.60;98.20;;;;;;5069155;28;20472;-76
2022/06/11 02:49:38;;;;;;;1.50;0.90;;;19.50;98.20;;;;;;5074694;28;20560;-76
2022/06/11 02:52:10;;;;;;;1.50;0.90;;;19.40;98.20;;;;;;5067813;28;20458;-76
2022/06/11 02:54:37;;;;;;;1.50;1.00;;;19.30;98.20;;;;;;5070099;28;20593;-76
2022/06/11 02:57:07;;;;;;;1.50;0.90;;;19.30;98.20;;;;;;5062269;28;20985;-76
2022/06/11 02:59:34;;;;;;;1.50;0.90;;;19.20;98.20;;;;;;5069264;28;20500;-76
2022/06/11 03:02:02;;;;;;;1.50;0.90;;;19.10;98.20;;;;;;5085625;28;20487;-77
2022/06/11 03:04:32;;;;;;;1.50;0.90;;;19.00;98.20;;;;;;5076988;28;20468;-76
2022/06/11 03:07:00;;;;;;;1.50;1.00;;;19.00;98.20;;;;;;5069670;28;20465;-76
2022/06/11 03:09:30;;;;;;;1.50;0.93;;;18.90;98.20;;;;;;5069442;28;20564;-76
2022/06/11 03:11:56;;;;;;;1.50;0.90;;;18.80;98.20;;;;;;5082843;28;20483;-76
2022/06/11 03:14:23;;;;;;;1.50;1.00;;;18.70;98.20;;;;;;5090070;28;20480;-77
2022/06/11 03:16:51;;;;;;;1.50;0.90;;;18.70;98.20;;;;;;5068494;28;20453;-77
2022/06/11 03:19:20;;;;;;;1.50;1.00;;;18.60;98.20;;;;;;5068818;28;20493;-76
2022/06/11 03:21:48;;;;;;;1.50;1.00;;;18.50;98.20;;;;;;5066682;28;20515;-77
2022/06/11 03:24:15;;;;;;;1.50;0.90;;;18.50;98.20;;;;;;5077524;28;20627;-77
2022/06/11 03:26:42;;;;;;;1.50;1.00;;;18.50;98.20;;;;;;5071938;28;20485;-76
2022/06/11 03:29:10;;;;;;;1.50;0.93;;;18.40;98.20;;;;;;5076304;28;20496;-76
2022/06/11 03:31:38;;;;;;;1.50;1.00;;;18.30;98.20;;;;;;5063476;28;20638;-76
2022/06/11 03:34:05;;;;;;;1.50;0.90;;;18.30;98.20;;;;;;5076500;28;20460;-77
2022/06/11 03:36:32;;;;;;;1.50;1.00;;;18.30;98.20;;;;;;5079499;28;20462;-76
2022/06/11 03:39:01;;;;;;;1.50;1.00;;;18.20;98.20;;;;;;5070964;28;20485;-76
2022/06/11 03:41:29;;;;;;;1.50;1.00;;;18.20;98.20;;;;;;5065193;27;20480;-76
2022/06/11 03:43:57;;;;;;;1.50;1.00;;;18.10;98.20;;;;;;5086044;27;21066;-76
2022/06/11 03:46:24;;;;;;;1.47;0.90;;;18.10;98.20;;;;;;5064979;28;20560;-76
2022/06/11 03:48:52;;;;;;;1.50;0.90;;;18.10;98.20;;;;;;5076626;28;20512;-76
2022/06/11 03:51:20;;;;;;;1.50;1.00;;;18.10;98.20;;;;;;5058710;28;20598;-77
2022/06/11 03:53:47;;;;;;;1.50;1.00;;;18.10;98.20;;;;;;5068616;28;20839;-76
2022/06/11 03:56:17;;;;;;;1.50;0.90;;;18.00;98.20;;;;;;5064733;28;20480;-76
2022/06/11 03:58:47;;;;;;;1.50;1.00;;;18.00;98.20;;;;;;5069503;28;20485;-76
2022/06/11 04:01:16;;;;;;;1.50;0.90;;;18.00;98.20;;;;;;5060800;27;20487;-77
2022/06/11 04:03:46;;;;;;;1.50;0.90;;;18.00;98.20;;;;;;5098015;27;20564;-76
2022/06/11 04:06:17;;;;;;;1.50;0.90;;;18.00;98.20;;;;;;5060127;28;20476;-76
2022/06/11 04:08:44;;;;;;;1.50;0.90;;;18.00;98.20;;;;;;5076321;28;20489;-76
2022/06/11 04:11:12;;;;;;;1.50;1.00;;;18.00;98.20;;;;;;5060360;28;20483;-77
2022/06/11 04:13:43;;;;;;;1.50;1.00;;;18.00;98.20;;;;;;5067372;28;20808;-77
2022/06/11 04:16:20;;;;;;;1.50;0.90;;;18.00;98.20;;;;;;5061515;28;20488;-76
2022/06/11 04:18:49;;;;;;;1.50;1.00;;;18.00;98.20;;;;;;5076676;28;20461;-77
2022/06/11 04:21:18;;;;;;;1.50;0.90;;;18.00;98.20;;;;;;5060336;28;20484;-76
2022/06/11 04:23:47;;;;;;;1.90;1.20;;;18.00;98.20;;;;;;5082851;28;20974;-76
2022/06/11 04:26:18;;;;;;;1.50;1.00;;;18.10;98.20;;;;;;5083189;28;20466;-75
2022/06/11 04:28:46;;;;;;;1.47;0.90;;;18.10;98.20;;;;;;5086908;28;20862;-76
2022/06/11 04:31:15;;;;;;;1.50;0.90;;;18.10;98.20;;;;;;5079883;28;20497;-77
2022/06/11 04:33:42;;;;;;;1.50;0.90;;;18.20;98.20;;;;;;5099901;28;20452;-77
2022/06/11 04:36:10;;;;;;;1.50;0.90;;;18.30;98.20;;;;;;5077869;28;20487;-77
2022/06/11 04:38:38;;;;;;;1.50;1.00;;;18.40;98.20;;;;;;5084699;28;20469;-77
2022/06/11 04:41:06;;;;;;;1.50;1.00;;;18.40;98.20;;;;;;5059806;28;20492;-77
2022/06/11 04:43:33;;;;;;;1.47;0.90;;;18.60;98.20;;;;;;5068102;28;20484;-77
2022/06/11 04:46:01;;;;;;;1.50;0.90;;;18.70;98.20;;;;;;5064730;28;20475;-77
2022/06/11 04:48:28;;;;;;;1.50;0.93;;;18.90;98.20;;;;;;5082402;28;20465;-78
2022/06/11 04:50:55;;;;;;;1.50;0.90;;;19.00;98.20;;;;;;5066423;28;20469;-77
2022/06/11 04:53:22;;;;;;;1.50;1.00;;;19.20;98.20;;;;;;5061591;28;20841;-76
2022/06/11 04:55:49;;;;;;;1.50;0.90;;;19.20;98.20;;;;;;5049915;28;20470;-76
2022/06/11 04:58:16;;;;;;;1.50;0.93;;;19.30;98.20;;;;;;5076669;28;20525;-77
2022/06/11 05:00:43;;;;;;;1.50;1.00;;;19.30;98.20;;;;;;5087044;28;20496;-77
2022/06/11 05:03:11;;;;;;;1.50;0.90;;;19.30;98.20;;;;;;5073946;28;20468;-77
2022/06/11 05:05:38;;;;;;;1.50;0.90;;;19.40;98.20;;;;;;5085437;28;20467;-77
2022/06/11 05:08:06;;;;;;;1.50;0.90;;;19.40;98.20;;;;;;5068672;28;20857;-78
2022/06/11 05:10:35;;;;;;;1.50;0.90;;;19.40;98.20;;;;;;5077710;28;20867;-77
2022/06/11 05:13:02;;;;;;;1.50;1.00;;;19.40;98.20;;;;;;5094338;28;20487;-77
2022/06/11 05:15:29;;;;;;;1.50;0.90;;;19.40;98.20;;;;;;5088028;28;20460;-77
2022/06/11 05:17:56;;;;;;;1.50;0.90;;;19.50;98.20;;;;;;5069625;28;20956;-78
2022/06/11 05:20:24;;;;;;;1.50;0.90;;;19.60;98.20;;;;;;5066603;28;20872;-77
2022/06/11 05:22:51;;;;;;;1.50;0.90;;;19.60;98.20;;;;;;5077313;28;20836;-77
2022/06/11 05:25:19;;;;;;;1.50;0.90;;;19.70;98.20;;;;;;5084677;28;20977;-77
2022/06/11 05:27:47;;;;;;;1.50;1.00;;;19.80;98.20;;;;;;5091143;28;20532;-77
2022/06/11 05:30:17;;;;;;;1.50;0.90;;;20.00;98.20;;;;;;5087864;28;20495;-77
2022/06/11 05:32:45;;;;;;;1.50;0.90;;;20.10;98.20;;;;;;5077133;28;20504;-78
2022/06/11 05:35:15;;;;;;;1.50;0.90;;;20.20;98.20;;;;;;5091388;28;20471;-77
2022/06/11 05:37:43;;;;;;;1.50;0.90;;;20.30;98.20;;;;;;5084918;28;20484;-77
2022/06/11 05:40:14;;;;;;;1.50;0.90;;;20.40;98.20;;;;;;5081316;28;20488;-77
2022/06/11 05:42:41;;;;;;;1.50;0.90;;;20.50;98.20;;;;;;5088010;28;20460;-77
2022/06/11 05:45:11;;;;;;;1.50;0.90;;;20.60;98.20;;;;;;5093468;28;21035;-78
2022/06/11 05:47:41;;;;;;;1.50;0.90;;;20.70;98.20;;;;;;5074095;28;20856;-77
2022/06/11 05:50:11;;;;;;;1.50;0.90;;;20.80;98.20;;;;;;5071436;28;20516;-77
2022/06/11 05:52:45;;;;;;;1.50;0.90;;;20.80;98.20;;;;;;5091231;27;20472;-77
2022/06/11 05:55:15;;;;;;;1.50;0.90;;;20.90;98.20;;;;;;5072105;28;20464;-77
2022/06/11 05:57:42;;;;;;;1.50;0.90;;;20.90;98.20;;;;;;5093935;28;20832;-76
2022/06/11 06:00:13;;;;;;;1.50;0.90;;;21.00;98.20;;;;;;5083454;28;20488;-76
2022/06/11 06:02:41;;;;;;;1.50;0.90;;;21.00;98.20;;;;;;5094448;28;20483;-77
2022/06/11 06:05:09;;;;;;;1.50;0.90;;;21.10;98.20;;;;;;5067410;28;20469;-77
2022/06/11 06:07:36;;;;;;;1.50;0.90;;;21.20;97.90;;;;;;5062894;28;20487;-77
2022/06/11 06:10:03;;;;;;;1.50;0.90;;;21.30;97.70;;;;;;5065691;28;20481;-77
2022/06/11 06:12:33;;;;;;;1.50;0.90;;;21.30;97.20;;;;;;5094667;27;20478;-76
2022/06/11 06:15:04;;;;;;;1.50;0.90;;;21.40;97.20;;;;;;5068486;28;20476;-77
2022/06/11 06:17:31;;;;;;;1.50;0.90;;;21.50;97.00;;;;;;5070244;28;21106;-76
2022/06/11 06:19:58;;;;;;;1.50;0.90;;;21.60;97.20;;;;;;5070956;28;20496;-77
2022/06/11 06:22:25;;;;;;;1.50;0.90;;;21.70;96.80;;;;;;5062608;28;21016;-77
2022/06/11 06:24:52;;;;;;;1.50;0.90;;;21.90;96.40;;;;;;5067433;28;20955;-77
2022/06/11 06:27:19;;;;;;;1.50;0.90;;;22.00;96.20;;;;;;5061290;28;20485;-77
2022/06/11 06:29:47;;;;;;;1.50;0.90;;;22.10;96.40;;;;;;5075235;28;20855;-77
2022/06/11 06:32:14;;;;;;;1.50;0.90;;;22.20;95.70;;;;;;5084995;28;20942;-76
2022/06/11 06:34:41;;;;;;;1.50;0.90;;;22.30;95.00;;;;;;5094436;28;20465;-77
2022/06/11 06:37:08;;;;;;;1.50;0.90;;;22.40;95.10;;;;;;5083995;28;21005;-77
2022/06/11 06:39:35;;;;;;;1.50;0.90;;;22.50;95.10;;;;;;5073794;28;20862;-78
2022/06/11 06:42:02;;;;;;;1.50;0.90;;;22.60;94.50;;;;;;5069188;28;21123;-77
2022/06/11 06:44:29;;;;;;;1.50;0.90;;;22.70;94.50;;;;;;5076682;28;20606;-77
2022/06/11 06:46:57;;;;;;;1.50;0.90;;;22.80;94.10;;;;;;5069818;28;20956;-77
2022/06/11 06:49:23;;;;;;;1.47;0.83;;;22.90;94.60;;;;;;5080277;28;20487;-77
2022/06/11 06:51:50;;;;;;;1.47;0.90;;;23.00;94.10;;;;;;5064898;28;20802;-78
2022/06/11 06:54:18;;;;;;;1.50;0.90;;;23.10;93.70;;;;;;5071572;28;20544;-78
2022/06/11 06:56:44;;;;;;;1.50;0.90;;;23.10;94.00;;;;;;5072908;28;20609;-78
2022/06/11 06:59:12;;;;;;;1.43;0.90;;;23.20;93.50;;;;;;5096848;28;20489;-76
2022/06/11 07:01:39;;;;;;;1.50;0.90;;;23.30;93.40;;;;;;5084893;28;20488;-76
2022/06/11 07:04:08;;;;;;;1.47;0.90;;;23.40;94.00;;;;;;5099747;28;20480;-79
2022/06/11 07:06:37;;;;;;;1.50;0.90;;;23.60;93.50;;;;;;5080397;28;20487;-78
2022/06/11 07:09:04;;;;;;;1.47;0.90;;;23.80;92.50;;;;;;5076086;28;20552;-78
2022/06/11 07:11:31;;;;;;;1.47;0.90;;;23.90;92.30;;;;;;5065146;28;20486;-78
2022/06/11 07:13:58;;;;;;;1.47;0.90;;;23.90;92.50;;;;;;5067869;28;20458;-78
2022/06/11 07:16:31;;;;;;;1.50;0.90;;;24.00;92.50;;;;;;5084903;28;21071;-77
2022/06/11 07:19:03;;;;;;;1.50;0.90;;;23.90;91.60;;;;;;5080629;28;20868;-78
2022/06/11 07:21:36;;;;;;;1.50;0.90;;;23.80;91.60;;;;;;5067782;28;20504;-79
2022/06/11 07:24:08;;;;;;;1.50;0.90;;;23.80;92.20;;;;;;5072178;28;20460;-79
2022/06/11 07:26:39;;;;;;;1.50;0.90;;;23.80;92.00;;;;;;5068560;28;20488;-78
2022/06/11 07:29:09;;;;;;;1.50;0.90;;;23.80;91.80;;;;;;5096435;28;21002;-78
2022/06/11 07:31:36;;;;;;;1.50;0.90;;;23.90;91.30;;;;;;5086150;28;20479;-77
2022/06/11 07:34:03;;;;;;;1.50;0.90;;;23.90;91.20;;;;;;5093675;28;20472;-77
2022/06/11 07:36:31;;;;;;;1.47;0.90;;;24.00;91.20;;;;;;5070649;28;20458;-77
2022/06/11 07:38:58;;;;;;;1.47;0.90;;;24.10;91.30;;;;;;5075969;28;20495;-77
2022/06/11 07:41:25;;;;;;;1.60;1.10;;;24.20;91.80;;;;;;5071583;28;20477;-78
2022/06/11 07:43:52;;;;;;;1.50;0.90;;;24.30;90.70;;;;;;5093985;28;20460;-78
2022/06/11 07:46:18;;;;;;;1.47;0.90;;;24.40;90.60;;;;;;5079805;28;20495;-78
2022/06/11 07:48:45;;;;;;;1.50;0.90;;;24.50;90.50;;;;;;5079631;28;20473;-78
2022/06/11 07:51:12;;;;;;;1.50;0.90;;;24.60;90.60;;;;;;5063784;28;20484;-78
2022/06/11 07:53:40;;;;;;;1.50;0.90;;;24.70;90.30;;;;;;5072205;28;20484;-78
2022/06/11 07:56:07;;;;;;;1.50;0.90;;;24.80;90.20;;;;;;5063656;28;20534;-78
2022/06/11 07:58:34;;;;;;;1.50;0.90;;;24.90;89.50;;;;;;5071724;28;20977;-77
2022/06/11 08:01:01;;;;;;;1.50;0.90;;;25.00;89.40;;;;;;5072300;28;20503;-75
2022/06/11 08:03:31;;;;;;;1.50;0.90;;;25.20;88.30;;;;;;5071304;28;20456;-76
2022/06/11 08:05:58;;;;;;;1.57;1.00;;;25.50;87.70;;;;;;5050199;28;20961;-76
2022/06/11 08:08:25;;;;;;;1.50;0.90;;;25.80;88.10;;;;;;5089936;28;20968;-76
2022/06/11 08:10:53;;;;;;;1.53;1.10;;;26.20;87.80;;;;;;5052323;28;20469;-76
2022/06/11 08:13:20;;;;;;;1.50;0.87;;;26.60;85.30;;;;;;5062265;28;20472;-75
2022/06/11 08:15:49;;;;;;;1.50;0.90;;;27.00;85.50;;;;;;5088551;28;20466;-76
2022/06/11 08:18:17;;;;;;;1.50;0.90;;;27.40;84.90;;;;;;5067357;28;20453;-78
2022/06/11 08:20:45;;;;;;;1.50;0.80;;;27.80;83.10;;;;;;5065934;28;20473;-79
2022/06/11 08:23:12;;;;;;;1.50;0.90;;;28.00;82.50;;;;;;5058902;28;20473;-77
2022/06/11 08:25:39;;;;;;;1.50;0.90;;;28.00;81.80;;;;;;5091660;28;20464;-79
2022/06/11 08:28:08;;;;;;;1.50;0.90;;;27.90;80.60;;;;;;5081138;28;20452;-77
2022/06/11 08:30:35;;;;;;;1.50;0.90;;;28.00;82.10;;;;;;5082359;28;21049;-77
2022/06/11 08:33:02;;;;;;;1.50;0.90;;;28.10;80.50;;;;;;5086585;28;20893;-77
2022/06/11 08:35:32;;;;;;;1.50;0.80;;;28.30;79.30;;;;;;5067527;28;20491;-76
2022/06/11 08:38:00;;;;;;;1.50;0.80;;;28.30;79.80;;;;;;5064150;28;21068;-76
2022/06/11 08:40:32;;;;;;;1.50;0.90;;;28.20;80.10;;;;;;5065673;28;20493;-77
2022/06/11 08:43:02;;;;;;;1.47;0.80;;;27.90;80.10;;;;;;5066694;28;20463;-77
2022/06/11 08:45:38;;;;;;;1.50;0.90;;;27.70;80.60;;;;;;5059451;28;20479;-77
2022/06/11 08:48:14;;;;;;;1.43;0.80;;;27.40;81.00;;;;;;5062511;28;20476;-77
2022/06/11 08:50:48;;;;;;;1.50;0.80;;;27.10;82.30;;;;;;5058911;28;20483;-77
2022/06/11 08:53:17;;;;;;;1.50;0.83;;;27.00;82.60;;;;;;5059930;28;20458;-77
2022/06/11 08:55:44;;;;;;;1.47;0.80;;;26.80;81.30;;;;;;5054131;28;20461;-77
2022/06/11 08:58:23;;;;;;;1.50;0.80;;;26.60;82.30;;;;;;5047722;28;20477;-77
2022/06/11 09:01:04;;;;;;;1.50;0.80;;;26.70;82.70;;;;;;5042963;28;20561;-76
2022/06/11 09:03:54;;;;;;;1.50;0.90;;;26.70;82.60;;;;;;5065460;28;20488;-77
2022/06/11 09:06:50;;;;;;;1.50;0.90;;;26.70;82.20;;;;;;5053204;28;20463;-78
2022/06/11 09:09:25;;;;;;;1.40;0.80;;;26.90;82.60;;;;;;5032887;28;20499;-78
2022/06/11 09:12:10;;;;;;;1.40;0.80;;;27.10;82.10;;;;;;5052096;28;20483;-78
2022/06/11 09:15:00;;;;;;;1.50;0.80;;;27.30;80.70;;;;;;5058022;28;20465;-79
2022/06/11 09:18:03;;;;;;;1.50;0.90;;;27.40;80.20;;;;;;5052506;28;20546;-78
2022/06/11 09:20:42;;;;;;;1.43;0.80;;;27.50;80.30;;;;;;5060058;28;20838;-77
2022/06/11 09:23:32;;;;;;;1.40;0.80;;;27.60;80.50;;;;;;5053224;28;20465;-81
2022/06/11 09:26:17;;;;;;;1.50;0.80;;;27.90;80.70;;;;;;5052950;28;20541;-78
2022/06/11 09:28:53;;;;;;;1.50;0.80;;;28.30;79.00;;;;;;5049548;28;20489;-78
2022/06/11 09:31:28;;;;;;;1.50;0.90;;;28.60;78.30;;;;;;5044822;28;20578;-78
2022/06/11 09:34:05;;;;;;;1.43;0.80;;;28.70;77.30;;;;;;5065623;28;20600;-78
2022/06/11 09:36:38;;;;;;;1.50;0.80;;;28.80;78.40;;;;;;5046349;28;20491;-78
2022/06/11 09:39:16;;;;;;;1.47;0.80;;;29.00;77.20;;;;;;5066615;28;20488;-77
2022/06/11 09:41:49;;;;;;;1.50;0.80;;;29.30;77.60;;;;;;5050495;28;20863;-79
2022/06/11 09:44:29;;;;;;;1.50;0.90;;;29.60;76.30;;;;;;5061159;28;21129;-78
2022/06/11 09:47:02;;;;;;;1.50;0.80;;;29.80;75.80;;;;;;5056402;28;20461;-77
2022/06/11 09:49:37;;;;;;;1.47;0.80;;;30.00;76.30;;;;;;5051312;28;20481;-76
2022/06/11 09:52:11;;;;;;;1.43;0.80;;;30.20;74.60;;;;;;5050878;28;20569;-76
2022/06/11 09:54:52;;;;;;;1.43;0.80;;;30.40;75.30;;;;;;5055500;28;20491;-76
2022/06/11 09:57:29;;;;;;;1.50;0.90;;;30.50;73.50;;;;;;5048663;28;20467;-74
2022/06/11 10:00:01;;;;;;;1.57;1.27;;;30.40;73.30;;;;;;5047607;28;20585;-74
2022/06/11 10:02:35;;;;;;;1.47;0.80;;;30.20;74.30;;;;;;5055546;28;20566;-74
2022/06/11 10:05:09;;;;;;;1.43;0.80;;;30.00;74.80;;;;;;5054382;28;21040;-74
2022/06/11 10:07:42;;;;;;;1.47;0.90;;;30.00;74.30;;;;;;5050524;28;20523;-74
2022/06/11 10:10:15;;;;;;;1.43;0.80;;;30.10;74.30;;;;;;5052778;28;20560;-75
2022/06/11 10:12:46;;;;;;;1.47;0.80;;;30.20;75.90;;;;;;5051661;28;20597;-75
2022/06/11 10:15:19;;;;;;;1.50;0.90;;;30.40;73.10;;;;;;5048051;28;20468;-75
2022/06/11 10:17:55;;;;;;;1.47;0.80;;;30.30;72.50;;;;;;5054440;28;20543;-74
2022/06/11 10:20:27;;;;;;;1.47;0.80;;;30.10;74.00;;;;;;5055043;28;20480;-74
2022/06/11 10:22:59;;;;;;;1.47;0.80;;;30.30;75.00;;;;;;5055983;28;21020;-75
2022/06/11 10:25:31;;;;;;;1.40;0.80;;;30.30;74.80;;;;;;5055454;28;20501;-74
2022/06/11 10:28:03;;;;;;;1.50;0.80;;;30.40;74.00;;;;;;5067118;28;20537;-75
2022/06/11 10:30:41;;;;;;;1.43;0.87;;;30.20;74.30;;;;;;5063540;28;20886;-74
2022/06/11 10:33:17;;;;;;;1.50;0.80;;;29.90;74.70;;;;;;5060977;28;20544;-75
2022/06/11 10:35:49;;;;;;;1.43;0.80;;;30.00;75.80;;;;;;5057101;28;20527;-74
2022/06/11 10:38:30;;;;;;;1.40;0.80;;;30.30;74.70;;;;;;5056897;28;20461;-74
2022/06/11 10:41:01;;;;;;;1.47;0.90;;;30.50;72.90;;;;;;5046290;28;20628;-75
2022/06/11 10:43:36;;;;;;;1.50;0.80;;;30.50;73.00;;;;;;5066906;28;21081;-74
2022/06/11 10:46:03;;;;;;;1.50;1.00;;;30.70;75.20;;;;;;5056052;28;20575;-74
2022/06/11 10:48:36;;;;;;;1.47;0.83;;;31.20;72.90;;;;;;5078058;28;20542;-74
2022/06/11 10:51:13;;;;;;;1.50;1.00;;;31.50;71.00;;;;;;5050542;28;21009;-75
2022/06/11 10:53:52;;;;;;;1.43;0.80;;;31.70;71.70;;;;;;5066423;28;20834;-75
2022/06/11 10:56:26;;;;;;;1.40;0.80;;;31.90;71.90;;;;;;5047560;28;20499;-74
2022/06/11 10:59:01;;;;;;;1.47;0.80;;;31.90;71.00;;;;;;5062913;28;20962;-74
2022/06/11 11:01:33;;;;;;;1.47;0.90;;;32.00;70.60;;;;;;5053880;28;20460;-74
2022/06/11 11:04:18;;;;;;;1.47;0.80;;;32.10;71.30;;;;;;5058490;28;20215;-74
2022/06/11 11:06:47;;;;;;;1.47;0.80;;;32.30;69.40;;;;;;5048218;28;20484;-75
2022/06/11 11:09:23;;;;;;;1.43;0.80;;;32.50;70.90;;;;;;5062293;28;20227;-75
2022/06/11 11:11:53;;;;;;;1.47;0.80;;;32.70;69.10;;;;;;5050441;28;20207;-75
2022/06/11 11:14:32;;;;;;;1.50;0.80;;;32.70;68.40;;;;;;5060179;28;20207;-75
2022/06/11 11:17:01;;;;;;;1.47;0.80;;;32.60;68.50;;;;;;5052575;28;20297;-75
2022/06/11 11:19:32;;;;;;;1.50;0.90;;;32.60;69.50;;;;;;5055301;28;20291;-75
2022/06/11 11:22:11;;;;;;;1.47;0.80;;;32.70;68.80;;;;;;5052620;28;20238;-73
2022/06/11 11:24:41;;;;;;;1.43;0.80;;;32.70;69.10;;;;;;5058233;28;20218;-74
2022/06/11 11:27:16;;;;;;;1.50;1.20;;;32.60;70.20;;;;;;5054516;28;20298;-75
2022/06/11 11:29:51;;;;;;;1.43;0.80;;;32.50;70.50;;;;;;5065353;28;20222;-75
2022/06/11 11:32:37;;;;;;;1.47;0.80;;;32.60;70.70;;;;;;5054014;28;20204;-75
2022/06/11 11:35:17;;;;;;;1.47;0.80;;;32.60;68.60;;;;;;5050661;28;20999;-75
2022/06/11 11:37:46;;;;;;;1.40;0.80;;;32.70;68.50;;;;;;5051702;28;20326;-75
2022/06/11 11:40:26;;;;;;;1.47;0.90;;;32.60;68.10;;;;;;5049228;28;20245;-75
2022/06/11 11:42:57;;;;;;;1.47;0.80;;;32.40;68.90;;;;;;5056985;28;20262;-75
2022/06/11 11:45:28;;;;;;;1.50;0.90;;;31.90;69.50;;;;;;5052035;28;20207;-75
2022/06/11 11:48:03;;;;;;;1.47;0.80;;;31.30;71.40;;;;;;5076356;27;20226;-73
2022/06/11 11:50:35;;;;;;;1.47;0.80;;;31.10;71.60;;;;;;5049436;28;20489;-74
2022/06/11 11:53:07;;;;;;;1.43;0.80;;;30.90;72.00;;;;;;5056346;28;20488;-73
2022/06/11 11:55:37;;;;;;;1.43;0.80;;;30.90;72.00;;;;;;5050415;28;20314;-74
2022/06/11 11:58:07;;;;;;;1.47;0.80;;;31.10;73.00;;;;;;5065914;28;20515;-74
2022/06/11 12:00:45;;;;;;;1.47;0.80;;;31.50;72.50;;;;;;5052243;28;20242;-73
2022/06/11 12:03:21;;;;;;;1.43;0.90;;;31.90;69.80;;;;;;5038836;28;20238;-73
2022/06/11 12:05:52;;;;;;;1.40;0.80;;;32.10;71.40;;;;;;5042498;28;20210;-73
2022/06/11 12:08:25;;;;;;;1.47;0.80;;;32.30;69.20;;;;;;5064177;28;20650;-73
2022/06/11 12:10:58;;;;;;;1.43;0.80;;;32.30;69.90;;;;;;5049160;28;20265;-72
2022/06/11 12:13:28;;;;;;;1.43;0.80;;;32.50;69.90;;;;;;5051896;28;20202;-73
2022/06/11 12:15:58;;;;;;;1.47;0.80;;;32.50;69.30;;;;;;5038109;28;20273;-73
2022/06/11 12:18:34;;;;;;;1.43;0.80;;;32.50;70.40;;;;;;5069289;28;20206;-73
2022/06/11 12:21:06;;;;;;;1.43;0.80;;;32.50;69.90;;;;;;5052292;28;20293;-75
2022/06/11 12:23:39;;;;;;;1.47;0.80;;;32.40;69.60;;;;;;5051852;28;20665;-75
2022/06/11 12:26:10;;;;;;;1.43;0.90;;;32.20;70.00;;;;;;5052496;28;20688;-75
2022/06/11 12:28:42;;;;;;;1.47;0.80;;;32.20;69.70;;;;;;5061457;28;20215;-75
2022/06/11 12:31:11;;;;;;;1.43;0.80;;;32.40;69.80;;;;;;5055818;28;20225;-74
2022/06/11 12:33:43;;;;;;;1.40;0.80;;;32.30;69.70;;;;;;5063211;28;20548;-73
2022/06/11 12:36:18;;;;;;;1.43;0.80;;;32.40;69.60;;;;;;5059603;28;20672;-74
2022/06/11 12:38:54;;;;;;;1.43;0.80;;;32.70;68.10;;;;;;5053859;28;20266;-74
2022/06/11 12:41:32;;;;;;;1.43;0.80;;;32.70;68.30;;;;;;5050574;28;20422;-74
2022/06/11 12:44:23;;;;;;;1.47;0.80;;;32.50;67.90;;;;;;5056284;28;21058;-74
2022/06/11 12:46:55;;;;;;;1.47;0.80;;;32.00;67.80;;;;;;5056024;28;20248;-74
2022/06/11 12:49:33;;;;;;;1.43;0.80;;;31.70;68.40;;;;;;5053708;28;20281;-74
2022/06/11 12:52:13;;;;;;;2.47;1.77;;;31.70;68.30;;;;;;5050458;28;20217;-73
2022/06/11 12:55:11;;;;;;;1.43;0.80;;;31.80;69.00;;;;;;5051245;28;20715;-73
2022/06/11 12:57:49;;;;;;;1.47;0.80;;;31.60;70.30;;;;;;5051886;28;20207;-73
2022/06/11 13:00:38;;;;;;;1.47;0.80;;;31.40;69.30;;;;;;5050871;28;20227;-73
2022/06/11 13:03:25;;;;;;;1.40;0.80;;;31.50;71.50;;;;;;5062307;28;20491;-73
2022/06/11 13:06:22;;;;;;;1.50;0.90;;;31.10;70.00;;;;;;5055737;28;20210;-73
2022/06/11 13:09:03;;;;;;;1.40;0.80;;;31.00;71.30;;;;;;5055684;28;21002;-73
2022/06/11 13:11:42;;;;;;;1.40;0.80;;;31.00;71.20;;;;;;5049555;28;20283;-74